Terminal Aerodrome Forecast
Issued by NWS

Current Version | Previous Version | Text Only | Print | Product List | Glossary On
Versions: 1 2 3 4 5 6 7 8 9 10 11 12 13 14 15 16 17 18 19 20 21 22
000
FTUS41 KAKQ 191131
TAFPHF
TAF
KPHF 191131Z 1912/2012 35011KT P6SM BKN015
     FM191500 34012G20KT P6SM BKN035
     FM192300 34008KT P6SM BKN050
     FM200200 32007KT P6SM SCT080=

USA.gov is the U.S. government's official web portal to all federal, state and local government web resources and services.